createdAt,value
2023-03-23T15:59:01.371Z,31.96
2023-03-23T16:04:19.699Z,32.03
2023-03-23T16:09:22.886Z,32.97
2023-03-23T16:14:26.115Z,33.84
2023-03-23T16:19:29.155Z,34.40
2023-03-23T16:24:32.107Z,35.20
2023-03-23T16:34:43.440Z,36.83
2023-03-23T16:39:46.345Z,37.52
2023-03-23T16:44:50.982Z,37.99
2023-03-23T16:49:54.145Z,39.02
2023-03-23T16:54:57.089Z,39.43
2023-03-23T17:00:00.646Z,39.99
2023-03-23T17:05:06.364Z,40.78
2023-03-23T17:10:11.565Z,41.49
2023-03-23T17:15:16.941Z,42.16
2023-03-23T17:20:20.211Z,42.83
2023-03-23T17:25:23.178Z,43.40
2023-03-23T17:30:26.120Z,44.29
2023-03-23T17:35:28.856Z,44.97
2023-03-23T17:40:32.112Z,46.05
2023-03-23T17:45:37.192Z,47.17
2023-03-23T17:50:40.251Z,47.79
2023-03-23T17:55:43.689Z,48.68
2023-03-23T18:00:46.960Z,49.25
2023-03-23T18:05:51.315Z,50.29
2023-03-23T18:10:56.843Z,50.89
2023-03-23T18:16:00.391Z,51.65
2023-03-23T18:21:08.304Z,51.99
2023-03-23T18:26:14.792Z,53.05
2023-03-23T18:31:19.779Z,53.74
2023-03-23T18:36:27.311Z,54.27
2023-03-23T18:41:30.430Z,54.57
2023-03-23T18:46:37.436Z,55.73
2023-03-23T18:51:40.396Z,56.74
2023-03-23T18:56:43.236Z,56.61
2023-03-23T19:01:46.669Z,56.93
2023-03-23T19:06:51.108Z,57.97
2023-03-23T19:11:54.180Z,58.33
2023-03-23T19:16:57.783Z,58.41
2023-03-23T19:22:01.053Z,59.47
2023-03-23T19:27:04.330Z,59.93
2023-03-23T19:32:07.526Z,60.79
2023-03-23T19:37:11.224Z,61.99
2023-03-23T19:42:17.030Z,61.71
2023-03-23T19:47:20.225Z,61.78
2023-03-23T19:52:23.454Z,61.57
2023-03-23T19:57:26.848Z,62.17
2023-03-23T20:02:29.753Z,63.03
2023-03-23T20:07:32.620Z,63.70
2023-03-23T20:12:36.363Z,63.84
2023-03-23T20:17:40.043Z,64.10
2023-03-23T20:22:43.097Z,64.71
2023-03-23T20:27:46.562Z,65.10
2023-03-23T20:32:51.574Z,65.62
2023-03-23T20:37:54.495Z,66.00
2023-03-23T20:42:57.883Z,66.19
2023-03-23T20:48:02.314Z,66.33
2023-03-23T20:53:05.358Z,67.15
2023-03-23T20:58:08.236Z,67.52
2023-03-23T21:03:16.112Z,67.07
2023-03-23T21:08:19.692Z,67.66
2023-03-23T21:13:23.032Z,67.78
2023-03-23T21:18:27.244Z,68.44
2023-03-23T21:23:30.800Z,68.58
2023-03-23T21:28:34.232Z,68.65
2023-03-23T21:33:37.440Z,69.52
2023-03-23T21:38:41.087Z,69.95
2023-03-23T21:43:45.949Z,70.24
2023-03-23T21:48:51.549Z,70.18
2023-03-23T21:53:55.996Z,70.19
2023-03-23T21:59:01.151Z,70.49
2023-03-23T22:04:04.914Z,70.77
2023-03-23T22:09:09.760Z,71.00
2023-03-23T22:14:12.868Z,71.64
2023-03-23T22:19:16.230Z,71.49
2023-03-23T22:24:19.218Z,71.38
2023-03-23T22:29:23.016Z,71.37
2023-03-23T22:34:26.499Z,72.07
2023-03-23T22:39:29.710Z,72.60
2023-03-23T22:44:33.040Z,73.10
2023-03-23T22:49:36.170Z,73.11
2023-03-23T22:54:39.345Z,73.40
2023-03-23T22:59:42.780Z,74.04
2023-03-23T23:04:45.880Z,73.64
2023-03-23T23:09:48.956Z,74.20
2023-03-23T23:14:52.186Z,74.25
2023-03-23T23:19:57.474Z,74.04
2023-03-23T23:25:01.255Z,74.05
2023-03-23T23:30:06.754Z,74.55
2023-03-23T23:35:12.861Z,74.57
2023-03-23T23:40:17.578Z,74.56
2023-03-23T23:45:23.408Z,74.55
2023-03-23T23:50:27.191Z,74.86
2023-03-23T23:55:30.259Z,74.95
